Laval-Des-Rapides, Canada
Current Conditions -  °F | °C
As of 10:00 PM on Wednesday 22 Oct 2014 (Local Time) from CYUL Reporting Station
Scattered Clouds Scattered Clouds  
Wind Chill: 40°   Ceiling: Unl
Heat Index: 46°   Visibility: 15mi
Dew Point: 36°   Wind: 15mph
Humidity: 66%   Direction: 20°NNE
Pressure: 30.22"   Gusts: 24mph
Location:  45.55°N, 73.7°W
Report Text: CYUL 230200Z 02013G21KT 15SM FEW080 SCT180 08/02 A3022 RMK AC2AC1 SLP233
Loading
Personal Weather Stations






























Interactive Weather Map
Tropical Storm Tracking
New forecast layout! Learn more

10-Day Weather Forecast

Advertisements
Track Severe Weather on mobile